createdAt,value
2023-01-20T00:01:40.227Z,97.03
2023-01-20T00:04:07.822Z,97.82
2023-01-20T00:06:35.431Z,96.80
2023-01-20T00:09:05.176Z,96.84
2023-01-20T00:11:32.711Z,97.44
2023-01-20T00:14:01.478Z,98.69
2023-01-20T00:16:29.748Z,98.25
2023-01-20T00:18:58.836Z,99.28
2023-01-20T00:21:26.341Z,99.26
2023-01-20T00:23:53.683Z,98.95
2023-01-20T00:26:22.885Z,99.12
2023-01-20T00:28:51.005Z,99.14
2023-01-20T00:31:20.208Z,99.00
2023-01-20T00:33:48.985Z,98.52
2023-01-20T00:36:19.719Z,98.74
2023-01-20T00:38:47.367Z,98.85
2023-01-20T00:41:16.319Z,99.23
2023-01-20T00:43:44.226Z,99.06
2023-01-20T00:46:12.096Z,98.46
2023-01-20T00:48:39.943Z,98.56
2023-01-20T00:51:08.363Z,98.54
2023-01-20T00:53:37.610Z,98.52
2023-01-20T00:56:06.146Z,99.11
2023-01-20T00:58:33.896Z,98.37
2023-01-20T01:01:02.272Z,98.45
2023-01-20T01:03:29.960Z,98.82
2023-01-20T01:06:07.551Z,98.86
2023-01-20T01:08:37.265Z,98.38
2023-01-20T01:11:05.780Z,98.20
2023-01-20T01:13:34.091Z,98.20
2023-01-20T01:16:02.329Z,98.73
2023-01-20T01:18:29.948Z,99.78
2023-01-20T01:20:57.563Z,99.58
2023-01-20T01:23:25.159Z,98.94
2023-01-20T01:25:54.002Z,99.54
2023-01-20T01:28:21.436Z,99.12
2023-01-20T01:30:48.863Z,99.47
2023-01-20T01:33:16.298Z,99.16
2023-01-20T01:35:43.735Z,98.89
2023-01-20T01:38:11.241Z,98.66
2023-01-20T01:40:38.698Z,98.73
2023-01-20T01:43:12.395Z,98.85
2023-01-20T01:45:40.104Z,98.64
2023-01-20T01:48:10.206Z,99.21
2023-01-20T01:50:41.042Z,98.83
2023-01-20T01:53:09.395Z,99.51
2023-01-20T01:55:40.832Z,99.65
2023-01-20T01:58:12.891Z,99.61
2023-01-20T02:00:40.854Z,99.87
2023-01-20T02:03:08.513Z,99.11
2023-01-20T02:05:37.676Z,99.14
2023-01-20T02:08:05.631Z,98.83
2023-01-20T02:10:33.016Z,99.06
2023-01-20T02:13:00.997Z,99.08
2023-01-20T02:15:32.713Z,98.71
2023-01-20T02:18:12.310Z,98.92
2023-01-20T02:21:06.794Z,98.69
2023-01-20T02:23:48.031Z,98.56
2023-01-20T02:26:42.506Z,98.52
2023-01-20T02:29:24.544Z,98.37
2023-01-20T02:32:08.947Z,98.94
2023-01-20T02:34:41.049Z,99.20
2023-01-20T02:37:13.329Z,99.28
2023-01-20T02:39:43.854Z,98.43
2023-01-20T02:42:12.656Z,98.91
2023-01-20T02:44:42.991Z,98.99
2023-01-20T02:47:15.281Z,98.53
2023-01-20T02:49:47.772Z,99.29
2023-01-20T02:52:18.207Z,99.48
2023-01-20T02:54:49.936Z,99.23
2023-01-20T02:57:20.034Z,98.64
2023-01-20T02:59:51.499Z,99.24
2023-01-20T03:02:22.418Z,99.63
2023-01-20T03:04:52.888Z,99.33
2023-01-20T03:07:23.666Z,99.05
2023-01-20T03:09:55.266Z,99.14
2023-01-20T03:12:26.226Z,99.55
2023-01-20T03:14:53.895Z,99.25
2023-01-20T03:17:23.165Z,99.78
2023-01-20T03:19:50.773Z,99.64
2023-01-20T03:22:18.411Z,99.56
2023-01-20T03:24:47.407Z,99.84
2023-01-20T03:27:15.166Z,99.63
2023-01-20T03:29:42.779Z,99.29
2023-01-20T03:32:11.341Z,99.09
2023-01-20T03:34:42.071Z,99.92
2023-01-20T03:37:10.343Z,99.51
2023-01-20T03:39:39.763Z,99.09
2023-01-20T03:42:10.100Z,99.52
2023-01-20T03:44:55.615Z,99.36
2023-01-20T03:47:31.585Z,98.61
2023-01-20T03:50:08.245Z,98.17
2023-01-20T03:52:47.629Z,98.24
2023-01-20T03:55:17.941Z,98.46
2023-01-20T03:57:50.097Z,98.32
2023-01-20T04:00:19.310Z,98.10
2023-01-20T04:02:46.823Z,98.11
2023-01-20T04:05:15.997Z,97.62
2023-01-20T04:07:44.418Z,97.48
2023-01-20T04:10:14.351Z,97.34
2023-01-20T04:12:41.984Z,97.50
2023-01-20T04:15:11.486Z,97.48
2023-01-20T04:17:39.100Z,97.26
2023-01-20T04:20:10.349Z,96.98
2023-01-20T04:22:44.004Z,97.58
2023-01-20T04:25:15.776Z,97.70
2023-01-20T04:27:43.563Z,97.76
2023-01-20T04:30:13.427Z,97.48
2023-01-20T04:32:41.029Z,97.62
2023-01-20T04:35:10.176Z,97.04
2023-01-20T04:37:37.712Z,97.05
2023-01-20T04:40:07.842Z,97.25
2023-01-20T04:42:35.428Z,96.90
2023-01-20T04:45:03.098Z,97.10
2023-01-20T04:47:30.979Z,97.05
2023-01-20T04:49:58.506Z,96.98
2023-01-20T04:52:26.201Z,97.01
2023-01-20T04:54:54.003Z,96.53
2023-01-20T04:57:24.225Z,96.86
2023-01-20T04:59:51.761Z,96.97
2023-01-20T05:02:19.278Z,97.45
2023-01-20T05:04:46.873Z,97.14
2023-01-20T05:07:14.328Z,97.26
2023-01-20T05:09:41.737Z,97.19
2023-01-20T05:12:09.190Z,97.06
2023-01-20T05:14:38.016Z,97.13
2023-01-20T05:17:05.506Z,96.90
2023-01-20T05:19:33.032Z,96.69
2023-01-20T05:22:00.827Z,96.64
2023-01-20T05:24:28.471Z,97.03
2023-01-20T05:26:55.931Z,96.21
2023-01-20T05:29:23.725Z,96.00
2023-01-20T05:31:52.511Z,95.97
2023-01-20T05:34:20.012Z,95.81
2023-01-20T05:36:47.385Z,95.84
2023-01-20T05:39:14.771Z,96.58
2023-01-20T05:41:42.246Z,95.57
2023-01-20T05:44:09.927Z,95.49
2023-01-20T05:46:37.419Z,95.47
2023-01-20T05:49:06.393Z,95.58
2023-01-20T05:51:33.904Z,95.40
2023-01-20T05:54:03.178Z,95.33
2023-01-20T05:56:30.603Z,95.10
2023-01-20T05:58:58.086Z,95.46
2023-01-20T06:01:25.608Z,95.53
2023-01-20T06:03:53.202Z,95.46
2023-01-20T06:06:22.072Z,94.70
2023-01-20T06:08:49.628Z,94.97
2023-01-20T06:11:32.073Z,95.72
2023-01-20T06:13:59.445Z,94.85
2023-01-20T06:16:26.832Z,94.89
2023-01-20T06:18:54.258Z,96.44
2023-01-20T06:21:23.407Z,96.19
2023-01-20T06:23:50.926Z,96.06
2023-01-20T06:26:20.760Z,96.11
2023-01-20T06:28:48.149Z,95.25
2023-01-20T06:31:16.928Z,95.22
2023-01-20T06:33:45.135Z,95.18
2023-01-20T06:36:13.530Z,94.96
2023-01-20T06:38:44.290Z,95.12
2023-01-20T06:41:12.751Z,95.17
2023-01-20T06:43:41.807Z,95.34
2023-01-20T06:46:12.401Z,95.34
2023-01-20T06:48:40.026Z,96.77
2023-01-20T06:51:10.069Z,96.33
2023-01-20T06:53:37.789Z,96.22
2023-01-20T06:56:07.617Z,95.95
2023-01-20T06:58:35.073Z,95.64
2023-01-20T07:01:08.600Z,95.59
2023-01-20T07:03:36.218Z,95.63
2023-01-20T07:06:06.536Z,96.11
2023-01-20T07:08:33.937Z,96.96
2023-01-20T07:11:04.005Z,97.24
2023-01-20T07:13:32.679Z,98.09
2023-01-20T07:16:00.124Z,96.83
2023-01-20T07:18:27.537Z,96.49
2023-01-20T07:20:55.411Z,96.19
2023-01-20T07:23:22.872Z,96.04
2023-01-20T07:25:58.002Z,95.54
2023-01-20T07:28:25.364Z,95.39
2023-01-20T07:30:54.196Z,94.79
2023-01-20T07:33:21.574Z,94.50
2023-01-20T07:35:52.424Z,94.04
2023-01-20T07:38:19.874Z,93.85
2023-01-20T07:40:47.289Z,94.02
2023-01-20T07:43:14.727Z,94.25
2023-01-20T07:45:42.251Z,94.40
2023-01-20T07:48:11.021Z,94.54
2023-01-20T07:50:38.736Z,95.52
2023-01-20T07:53:07.053Z,94.80
2023-01-20T07:55:34.675Z,94.69
2023-01-20T07:58:02.555Z,95.01
2023-01-20T08:00:29.940Z,94.57
2023-01-20T08:02:57.272Z,95.16
2023-01-20T08:05:25.957Z,95.52
2023-01-20T08:07:53.541Z,95.91
2023-01-20T08:10:20.889Z,95.77
2023-01-20T08:12:48.234Z,95.73
2023-01-20T08:15:16.161Z,94.97
2023-01-20T08:17:43.862Z,94.15
2023-01-20T08:20:12.152Z,94.22
2023-01-20T08:22:40.836Z,94.04
2023-01-20T08:25:09.051Z,94.19
2023-01-20T08:27:36.462Z,94.52
2023-01-20T08:30:04.177Z,94.19
2023-01-20T08:32:31.807Z,94.06
2023-01-20T08:34:59.289Z,94.42
2023-01-20T08:37:26.797Z,94.50
2023-01-20T08:39:55.556Z,95.12
2023-01-20T08:42:22.906Z,94.65
2023-01-20T08:44:52.976Z,94.38
2023-01-20T08:47:20.335Z,94.25
2023-01-20T08:49:47.958Z,93.58
2023-01-20T08:52:15.479Z,93.87
2023-01-20T08:54:42.902Z,94.20
2023-01-20T08:57:11.682Z,93.89
2023-01-20T08:59:39.211Z,94.96
2023-01-20T09:02:06.613Z,94.69
2023-01-20T09:04:36.997Z,94.46
2023-01-20T09:07:05.120Z,94.99
2023-01-20T09:09:32.477Z,95.61
2023-01-20T09:11:59.825Z,94.82
2023-01-20T09:14:28.510Z,94.43
2023-01-20T09:16:55.835Z,94.28
2023-01-20T09:19:23.378Z,94.64
2023-01-20T09:21:50.833Z,94.39
2023-01-20T09:24:18.238Z,94.21
2023-01-20T09:26:45.639Z,94.51
2023-01-20T09:29:14.386Z,94.15
2023-01-20T09:31:45.248Z,93.95
2023-01-20T09:34:15.424Z,93.97
2023-01-20T09:36:42.895Z,93.76
2023-01-20T09:39:27.767Z,93.60
2023-01-20T09:42:13.061Z,93.75
2023-01-20T09:44:48.093Z,93.88
2023-01-20T09:47:31.923Z,93.82
2023-01-20T09:50:37.265Z,94.00
2023-01-20T09:53:08.003Z,94.21
2023-01-20T09:55:41.942Z,94.46
2023-01-20T09:58:17.143Z,94.39
2023-01-20T10:00:48.887Z,94.21
2023-01-20T10:03:21.276Z,94.05
2023-01-20T10:05:50.893Z,94.07
2023-01-20T10:08:20.883Z,94.13
2023-01-20T10:10:51.519Z,93.76
2023-01-20T10:13:21.370Z,93.51
2023-01-20T10:15:51.164Z,93.84
2023-01-20T10:18:25.104Z,93.60
2023-01-20T10:20:57.818Z,93.66
2023-01-20T10:23:29.199Z,93.12
2023-01-20T10:26:01.411Z,93.59
2023-01-20T10:28:30.036Z,93.53
2023-01-20T10:30:59.570Z,93.49
2023-01-20T10:33:31.025Z,94.25
2023-01-20T10:36:00.822Z,93.66
2023-01-20T10:38:37.258Z,93.16
2023-01-20T10:41:09.022Z,93.26
2023-01-20T10:43:36.438Z,93.05
2023-01-20T10:46:17.793Z,93.34
2023-01-20T10:49:05.276Z,93.30
2023-01-20T10:51:36.375Z,93.22
2023-01-20T10:54:13.643Z,92.57
2023-01-20T10:56:43.914Z,92.39
2023-01-20T10:59:14.508Z,92.67
2023-01-20T11:01:43.104Z,92.79
2023-01-20T11:04:18.261Z,92.44
2023-01-20T11:06:47.014Z,92.66
2023-01-20T11:09:21.493Z,92.19
2023-01-20T11:11:49.328Z,92.05
2023-01-20T11:14:16.806Z,92.44
2023-01-20T11:16:46.636Z,91.92
2023-01-20T11:19:14.027Z,91.81
2023-01-20T11:21:42.753Z,91.98
2023-01-20T11:24:33.027Z,92.14
2023-01-20T11:27:04.874Z,91.78
2023-01-20T11:29:35.496Z,91.83
2023-01-20T11:32:03.195Z,91.39
2023-01-20T11:34:31.759Z,91.95
2023-01-20T11:40:31.049Z,90.74
2023-01-20T11:42:58.472Z,91.29
2023-01-20T11:45:32.394Z,91.35
2023-01-20T11:48:03.294Z,91.96
2023-01-20T11:50:33.324Z,91.15
2023-01-20T11:53:21.865Z,91.81
2023-01-20T11:55:52.898Z,91.28
2023-01-20T11:58:21.936Z,92.53
2023-01-20T12:00:51.178Z,92.73
2023-01-20T12:03:51.780Z,92.91
2023-01-20T12:06:22.002Z,92.04
2023-01-20T12:08:51.465Z,91.83
2023-01-20T12:11:24.616Z,91.90
2023-01-20T12:14:19.408Z,91.57
2023-01-20T12:16:48.098Z,92.26
2023-01-20T12:19:17.585Z,91.93
2023-01-20T12:21:48.416Z,91.31
2023-01-20T12:24:21.002Z,91.34
2023-01-20T12:26:50.711Z,91.43
2023-01-20T12:29:21.249Z,91.41
2023-01-20T12:31:49.179Z,91.64
2023-01-20T12:34:18.498Z,91.51
2023-01-20T12:37:03.969Z,91.19
2023-01-20T12:39:46.186Z,92.22
2023-01-20T12:42:50.209Z,91.84
2023-01-20T12:45:27.617Z,91.88
2023-01-20T12:48:05.212Z,92.13
2023-01-20T12:50:41.904Z,91.30
2023-01-20T12:53:17.240Z,90.97
2023-01-20T12:55:56.734Z,91.61
2023-01-20T12:58:39.516Z,91.36
2023-01-20T13:01:38.432Z,90.95
2023-01-20T13:04:47.377Z,90.78
2023-01-20T13:07:39.758Z,91.49
2023-01-20T13:10:22.996Z,91.44
2023-01-20T13:12:55.290Z,92.83
2023-01-20T13:15:28.912Z,92.44
2023-01-20T13:18:07.929Z,92.13
2023-01-20T13:20:36.050Z,92.39
2023-01-20T13:23:05.409Z,92.08
2023-01-20T13:25:33.066Z,92.25
2023-01-20T13:28:00.795Z,91.67
2023-01-20T13:30:43.895Z,91.91
2023-01-20T13:33:17.749Z,91.37
2023-01-20T13:35:47.300Z,91.89
2023-01-20T13:38:19.798Z,91.75
2023-01-20T13:40:50.142Z,91.52
2023-01-20T13:43:55.341Z,91.51
2023-01-20T13:46:46.067Z,91.82
2023-01-20T13:49:29.250Z,91.73
2023-01-20T13:51:56.664Z,91.30
2023-01-20T13:54:38.031Z,91.64
2023-01-20T13:57:38.571Z,90.93
2023-01-20T14:00:17.290Z,91.15
2023-01-20T14:02:47.085Z,91.72
2023-01-20T14:05:26.353Z,91.77
2023-01-20T14:07:53.734Z,92.11
2023-01-20T14:10:21.143Z,92.05
2023-01-20T14:12:48.569Z,91.97
2023-01-20T14:15:27.422Z,91.57
2023-01-20T14:17:57.106Z,91.93
2023-01-20T14:20:26.414Z,91.39
2023-01-20T14:22:53.864Z,91.30
2023-01-20T14:25:23.482Z,91.51
2023-01-20T14:27:51.043Z,91.42
2023-01-20T14:30:22.208Z,91.17
2023-01-20T14:32:50.219Z,92.20
2023-01-20T14:35:23.846Z,92.49
2023-01-20T14:37:52.066Z,92.53
2023-01-20T14:40:23.941Z,92.42
2023-01-20T14:42:59.509Z,92.01
2023-01-20T14:45:29.255Z,92.08
2023-01-20T14:47:57.406Z,91.40
2023-01-20T14:50:26.513Z,91.54
2023-01-20T14:52:53.965Z,91.32
2023-01-20T14:55:31.430Z,92.07
2023-01-20T14:57:59.451Z,91.59
2023-01-20T15:00:28.506Z,91.30
2023-01-20T15:03:11.096Z,91.97
2023-01-20T15:05:42.011Z,91.44
2023-01-20T15:08:24.420Z,92.01
2023-01-20T15:11:21.501Z,92.47
2023-01-20T15:14:08.531Z,92.60
2023-01-20T15:16:49.753Z,93.11
2023-01-20T15:19:32.827Z,92.74
2023-01-20T15:22:22.050Z,92.28
2023-01-20T15:24:50.464Z,92.26
2023-01-20T15:27:24.795Z,93.01
2023-01-20T15:30:24.101Z,92.78
2023-01-20T15:32:52.262Z,93.23
2023-01-20T15:35:22.735Z,93.02
2023-01-20T15:37:51.527Z,93.27
2023-01-20T15:40:21.191Z,92.43
2023-01-20T15:42:50.460Z,92.19
2023-01-20T15:45:18.671Z,91.80
2023-01-20T15:47:47.348Z,91.03
2023-01-20T15:50:17.152Z,91.29
2023-01-20T15:52:44.916Z,91.33
2023-01-20T15:55:15.048Z,91.16
2023-01-20T15:57:42.852Z,90.90
2023-01-20T16:00:17.830Z,91.01
2023-01-20T16:02:45.516Z,90.80
2023-01-20T16:05:15.672Z,90.52
2023-01-20T16:07:44.239Z,90.86
2023-01-20T16:10:17.450Z,90.39
2023-01-20T16:12:45.156Z,90.84
2023-01-20T16:15:17.311Z,90.41
2023-01-20T16:17:44.707Z,90.29
2023-01-20T16:20:19.618Z,89.99
2023-01-20T16:22:47.021Z,90.40
2023-01-20T16:25:15.954Z,90.38
2023-01-20T16:27:43.365Z,90.26
2023-01-20T16:30:15.458Z,89.66
2023-01-20T16:32:46.021Z,90.02
2023-01-20T16:35:14.251Z,89.51
2023-01-20T16:37:42.111Z,89.77
2023-01-20T16:40:12.948Z,89.57
2023-01-20T16:42:41.696Z,89.41
2023-01-20T16:45:20.082Z,89.70
2023-01-20T16:47:47.527Z,89.80
2023-01-20T16:50:15.180Z,89.55
2023-01-20T16:52:42.746Z,89.37
2023-01-20T16:55:13.211Z,89.23
2023-01-20T16:57:42.993Z,89.25
2023-01-20T17:00:11.449Z,89.62
2023-01-20T17:02:39.386Z,89.03
2023-01-20T17:05:08.315Z,89.28
2023-01-20T17:07:36.101Z,89.34
2023-01-20T17:10:03.496Z,89.43
2023-01-20T17:12:30.865Z,89.05
2023-01-20T17:14:59.986Z,88.87
2023-01-20T17:17:27.370Z,88.76
2023-01-20T17:19:54.751Z,88.87
2023-01-20T17:22:22.106Z,89.00
2023-01-20T17:24:49.466Z,88.41
2023-01-20T17:27:16.814Z,88.28
2023-01-20T17:29:44.168Z,88.38
2023-01-20T17:32:12.924Z,88.56
2023-01-20T17:34:40.261Z,89.04
2023-01-20T17:37:07.588Z,88.47
2023-01-20T17:39:34.958Z,88.75
2023-01-20T17:42:02.317Z,88.80
2023-01-20T17:44:29.738Z,88.63
2023-01-20T17:46:57.064Z,88.92
2023-01-20T17:49:25.875Z,88.93
2023-01-20T17:51:53.277Z,88.60
2023-01-20T17:54:20.738Z,89.02
2023-01-20T17:56:48.342Z,88.52
2023-01-20T17:59:15.693Z,88.94
2023-01-20T18:01:44.109Z,88.74
2023-01-20T18:04:11.514Z,88.81
2023-01-20T18:06:40.337Z,88.54
2023-01-20T18:09:08.448Z,88.74
2023-01-20T18:11:37.532Z,88.54
2023-01-20T18:14:05.417Z,88.23
2023-01-20T18:16:34.485Z,88.41
2023-01-20T18:19:02.355Z,88.22
2023-01-20T18:21:31.317Z,88.25
2023-01-20T18:24:00.989Z,88.73
2023-01-20T18:26:30.271Z,88.71
2023-01-20T18:28:59.069Z,88.73
2023-01-20T18:31:27.920Z,88.83
2023-01-20T18:33:56.804Z,88.56
2023-01-20T18:36:26.355Z,88.18
2023-01-20T18:38:55.500Z,88.28
2023-01-20T18:41:25.770Z,88.26
2023-01-20T18:43:53.326Z,88.03
2023-01-20T18:46:21.069Z,88.25
2023-01-20T18:48:48.999Z,88.43
2023-01-20T18:51:20.147Z,88.64
2023-01-20T18:53:54.618Z,88.67
2023-01-20T18:56:22.087Z,88.26
2023-01-20T18:58:51.330Z,88.52
2023-01-20T19:01:21.244Z,88.22
2023-01-20T19:03:49.471Z,88.53
2023-01-20T19:06:18.719Z,88.10
2023-01-20T19:08:48.107Z,87.85
2023-01-20T19:11:17.681Z,87.64
2023-01-20T19:13:45.899Z,88.08
2023-01-20T19:16:14.706Z,88.32
2023-01-20T19:18:43.012Z,88.58
2023-01-20T19:21:12.473Z,88.09
2023-01-20T19:23:40.218Z,88.51
2023-01-20T19:26:09.036Z,88.85
2023-01-20T19:28:37.093Z,88.68
2023-01-20T19:31:06.320Z,88.49
2023-01-20T19:33:36.255Z,87.83
2023-01-20T19:36:06.002Z,88.56
2023-01-20T19:38:34.401Z,87.98
2023-01-20T19:41:05.364Z,87.98
2023-01-20T19:43:32.858Z,88.19
2023-01-20T19:46:02.089Z,88.44
2023-01-20T19:48:29.505Z,89.78
2023-01-20T19:51:02.828Z,88.69
2023-01-20T19:53:30.341Z,88.95
2023-01-20T19:56:01.767Z,88.93
2023-01-20T19:58:29.146Z,88.70
2023-01-20T20:00:56.643Z,88.23
2023-01-20T20:03:24.053Z,88.52
2023-01-20T20:05:51.918Z,88.09
2023-01-20T20:08:20.706Z,87.94
2023-01-20T20:10:48.153Z,88.43
2023-01-20T20:13:15.649Z,88.29
2023-01-20T20:15:43.334Z,88.00
2023-01-20T20:18:11.286Z,88.17
2023-01-20T20:20:38.747Z,88.41
2023-01-20T20:23:06.143Z,87.99
2023-01-20T20:25:37.366Z,88.43
2023-01-20T20:28:06.041Z,88.28
2023-01-20T20:30:33.465Z,87.70
2023-01-20T20:33:01.625Z,88.39
2023-01-20T20:35:29.039Z,88.18
2023-01-20T20:37:56.486Z,88.30
2023-01-20T20:40:25.154Z,87.81
2023-01-20T20:42:53.893Z,88.02
2023-01-20T20:45:21.223Z,88.13
2023-01-20T20:47:48.605Z,88.48
2023-01-20T20:50:16.450Z,87.55
2023-01-20T20:52:46.117Z,88.04
2023-01-20T20:55:13.634Z,88.08
2023-01-20T20:57:41.068Z,87.80
2023-01-20T21:00:11.590Z,87.87
2023-01-20T21:02:39.628Z,87.90
2023-01-20T21:05:07.973Z,87.98
2023-01-20T21:07:35.407Z,87.59
2023-01-20T21:10:04.904Z,87.92
2023-01-20T21:12:32.365Z,88.25
2023-01-20T21:15:04.403Z,88.09
2023-01-20T21:18:01.929Z,87.59
2023-01-20T21:20:31.184Z,87.53
2023-01-20T21:23:19.627Z,87.84
2023-01-20T21:26:18.513Z,88.21
2023-01-20T21:32:16.276Z,87.64
2023-01-20T21:35:11.108Z,88.02
2023-01-20T21:38:25.288Z,88.01
2023-01-20T21:44:50.457Z,87.74
2023-01-20T21:47:30.272Z,88.86
2023-01-20T21:50:40.825Z,89.20
2023-01-20T21:53:38.769Z,89.15
2023-01-20T21:56:22.561Z,89.65
2023-01-20T21:58:50.222Z,88.72
2023-01-20T22:01:17.732Z,88.57
2023-01-20T22:03:45.326Z,88.41
2023-01-20T22:06:14.119Z,88.52
2023-01-20T22:08:41.503Z,88.67
2023-01-20T22:11:10.172Z,88.14
2023-01-20T22:13:37.535Z,88.00
2023-01-20T22:16:06.090Z,88.79
2023-01-20T22:18:33.546Z,88.66
2023-01-20T22:21:02.308Z,89.17
2023-01-20T22:23:32.835Z,88.68
2023-01-20T22:26:00.495Z,88.89
2023-01-20T22:28:28.065Z,89.30
2023-01-20T22:30:55.899Z,88.77
2023-01-20T22:33:23.393Z,88.54
2023-01-20T22:35:50.716Z,88.40
2023-01-20T22:38:18.159Z,88.39
2023-01-20T22:40:46.949Z,88.70
2023-01-20T22:43:14.313Z,89.03
2023-01-20T22:45:41.804Z,88.73
2023-01-20T22:48:09.241Z,88.71
2023-01-20T22:50:36.638Z,89.31
2023-01-20T22:53:03.977Z,88.98
2023-01-20T22:55:31.707Z,88.55
2023-01-20T22:58:01.003Z,88.62
2023-01-20T23:00:28.375Z,88.38
2023-01-20T23:02:55.702Z,89.06
2023-01-20T23:05:23.093Z,89.13
2023-01-20T23:07:50.654Z,89.11
2023-01-20T23:10:32.388Z,88.79
2023-01-20T23:13:04.952Z,88.95
2023-01-20T23:15:33.099Z,88.80
2023-01-20T23:18:00.463Z,89.13
2023-01-20T23:20:27.931Z,88.70
2023-01-20T23:22:55.363Z,88.68
2023-01-20T23:25:22.691Z,88.47
2023-01-20T23:27:50.046Z,88.60
2023-01-20T23:30:19.028Z,89.04
2023-01-20T23:32:52.415Z,88.72
2023-01-20T23:35:19.906Z,89.13
2023-01-20T23:37:49.562Z,89.01
2023-01-20T23:40:18.532Z,89.07
2023-01-20T23:42:46.442Z,89.44
2023-01-20T23:45:14.200Z,89.33
2023-01-20T23:47:42.951Z,89.24
2023-01-20T23:50:11.690Z,89.36
2023-01-20T23:52:39.246Z,89.16
2023-01-20T23:55:07.781Z,89.10
2023-01-20T23:57:35.318Z,89.84
